Terminal Aerodrome Forecast
Issued by NWS

Current Version | Previous Version | Graphics & Text | Print | Product List | Glossary On
Versions: 1 2 3 4 5 6 7 8 9 10 11 12 13 14 15 16 17 18 19 20 21 22 23 24 25 26 27 28
000
FTUS41 KPBZ 270200 AAA
TAFHLG
TAF AMD
KHLG 270200Z 2702/2724 33012KT P6SM OVC009
     FM270400 33010KT P6SM BKN025
     FM271800 32010KT P6SM BKN035=

USA.gov is the U.S. government's official web portal to all federal, state and local government web resources and services.